sensor_id;sensor_type;location;lat;lon;timestamp;temperature;humidity
14741;DHT22;7462;53.530;9.414;2022-12-07T00:01:37;3.40;99.90
14741;DHT22;7462;53.530;9.414;2022-12-07T00:04:08;3.40;99.90
14741;DHT22;7462;53.530;9.414;2022-12-07T00:06:39;3.40;99.90
14741;DHT22;7462;53.530;9.414;2022-12-07T00:09:11;3.30;99.90
14741;DHT22;7462;53.530;9.414;2022-12-07T00:11:39;3.30;99.90
14741;DHT22;7462;53.530;9.414;2022-12-07T00:14:10;3.30;99.90
14741;DHT22;7462;53.530;9.414;2022-12-07T00:16:40;3.40;99.90
14741;DHT22;7462;53.530;9.414;2022-12-07T00:19:10;3.40;99.90
14741;DHT22;7462;53.530;9.414;2022-12-07T00:21:39;3.50;99.90
14741;DHT22;7462;53.530;9.414;2022-12-07T00:24:07;3.50;99.90
14741;DHT22;7462;53.530;9.414;2022-12-07T00:26:37;3.60;99.90
14741;DHT22;7462;53.530;9.414;2022-12-07T00:29:07;3.70;99.90
14741;DHT22;7462;53.530;9.414;2022-12-07T00:31:37;3.60;99.90
14741;DHT22;7462;53.530;9.414;2022-12-07T00:34:11;3.60;99.90
14741;DHT22;7462;53.530;9.414;2022-12-07T00:36:40;3.60;99.90
14741;DHT22;7462;53.530;9.414;2022-12-07T00:39:08;3.60;99.90
14741;DHT22;7462;53.530;9.414;2022-12-07T00:41:36;3.60;99.90
14741;DHT22;7462;53.530;9.414;2022-12-07T00:44:04;3.50;99.90
14741;DHT22;7462;53.530;9.414;2022-12-07T00:46:32;3.50;99.90
14741;DHT22;7462;53.530;9.414;2022-12-07T00:49:00;3.50;99.90
14741;DHT22;7462;53.530;9.414;2022-12-07T00:51:29;3.60;99.90
14741;DHT22;7462;53.530;9.414;2022-12-07T00:53:58;3.60;99.90
14741;DHT22;7462;53.530;9.414;2022-12-07T00:56:27;3.60;99.90
14741;DHT22;7462;53.530;9.414;2022-12-07T00:58:57;3.60;99.90
14741;DHT22;7462;53.530;9.414;2022-12-07T01:01:27;3.60;99.90
14741;DHT22;7462;53.530;9.414;2022-12-07T01:03:55;3.60;99.90
14741;DHT22;7462;53.530;9.414;2022-12-07T01:06:24;3.60;99.90
14741;DHT22;7462;53.530;9.414;2022-12-07T01:08:54;3.50;99.90
14741;DHT22;7462;53.530;9.414;2022-12-07T01:11:24;3.50;99.90
14741;DHT22;7462;53.530;9.414;2022-12-07T01:13:54;3.50;99.90
14741;DHT22;7462;53.530;9.414;2022-12-07T01:16:25;3.50;99.90
14741;DHT22;7462;53.530;9.414;2022-12-07T01:18:55;3.50;99.90
14741;DHT22;7462;53.530;9.414;2022-12-07T01:21:25;3.50;99.90
14741;DHT22;7462;53.530;9.414;2022-12-07T01:23:56;3.50;99.90
14741;DHT22;7462;53.530;9.414;2022-12-07T01:26:25;3.40;99.90
14741;DHT22;7462;53.530;9.414;2022-12-07T01:28:53;3.40;99.90
14741;DHT22;7462;53.530;9.414;2022-12-07T01:31:23;3.40;99.90
14741;DHT22;7462;53.530;9.414;2022-12-07T01:33:53;3.40;99.90
14741;DHT22;7462;53.530;9.414;2022-12-07T01:36:23;3.40;99.90
14741;DHT22;7462;53.530;9.414;2022-12-07T01:38:55;3.40;99.90
14741;DHT22;7462;53.530;9.414;2022-12-07T01:41:25;3.40;99.90
14741;DHT22;7462;53.530;9.414;2022-12-07T01:44:15;3.40;99.90
14741;DHT22;7462;53.530;9.414;2022-12-07T01:46:44;3.30;99.90
14741;DHT22;7462;53.530;9.414;2022-12-07T01:49:16;3.30;99.90
14741;DHT22;7462;53.530;9.414;2022-12-07T01:51:46;3.30;99.90
14741;DHT22;7462;53.530;9.414;2022-12-07T01:54:17;3.30;99.90
14741;DHT22;7462;53.530;9.414;2022-12-07T01:56:49;3.20;99.90
14741;DHT22;7462;53.530;9.414;2022-12-07T01:59:21;3.30;99.90
14741;DHT22;7462;53.530;9.414;2022-12-07T02:01:51;3.20;99.90
14741;DHT22;7462;53.530;9.414;2022-12-07T02:04:20;3.10;99.90
14741;DHT22;7462;53.530;9.414;2022-12-07T02:06:49;3.10;99.90
14741;DHT22;7462;53.530;9.414;2022-12-07T02:09:19;3.00;99.90
14741;DHT22;7462;53.530;9.414;2022-12-07T02:11:47;3.00;99.90
14741;DHT22;7462;53.530;9.414;2022-12-07T02:14:15;3.00;99.90
14741;DHT22;7462;53.530;9.414;2022-12-07T02:16:50;3.00;99.90
14741;DHT22;7462;53.530;9.414;2022-12-07T02:25:33;3.10;99.90
14741;DHT22;7462;53.530;9.414;2022-12-07T02:28:07;3.00;99.90
14741;DHT22;7462;53.530;9.414;2022-12-07T02:30:44;3.00;99.90
14741;DHT22;7462;53.530;9.414;2022-12-07T02:33:18;2.90;99.90
14741;DHT22;7462;53.530;9.414;2022-12-07T02:35:55;2.90;99.90
14741;DHT22;7462;53.530;9.414;2022-12-07T02:38:28;2.90;99.90
14741;DHT22;7462;53.530;9.414;2022-12-07T02:41:04;2.90;99.90
14741;DHT22;7462;53.530;9.414;2022-12-07T02:43:35;2.90;99.90
14741;DHT22;7462;53.530;9.414;2022-12-07T02:46:09;2.90;99.90
14741;DHT22;7462;53.530;9.414;2022-12-07T02:48:39;2.80;99.90
14741;DHT22;7462;53.530;9.414;2022-12-07T02:51:09;2.90;99.90
14741;DHT22;7462;53.530;9.414;2022-12-07T02:53:39;3.00;99.90
14741;DHT22;7462;53.530;9.414;2022-12-07T02:56:11;2.80;99.90
14741;DHT22;7462;53.530;9.414;2022-12-07T02:58:50;2.80;99.90
14741;DHT22;7462;53.530;9.414;2022-12-07T03:01:30;2.80;99.90
14741;DHT22;7462;53.530;9.414;2022-12-07T03:04:08;2.80;99.90
14741;DHT22;7462;53.530;9.414;2022-12-07T03:06:43;2.70;99.90
14741;DHT22;7462;53.530;9.414;2022-12-07T03:09:22;2.70;99.90
14741;DHT22;7462;53.530;9.414;2022-12-07T03:12:00;2.70;99.90
14741;DHT22;7462;53.530;9.414;2022-12-07T03:14:31;2.70;99.90
14741;DHT22;7462;53.530;9.414;2022-12-07T03:17:07;2.60;99.90
14741;DHT22;7462;53.530;9.414;2022-12-07T03:19:36;2.60;99.90
14741;DHT22;7462;53.530;9.414;2022-12-07T03:22:08;2.60;99.90
14741;DHT22;7462;53.530;9.414;2022-12-07T03:24:41;2.60;99.90
14741;DHT22;7462;53.530;9.414;2022-12-07T03:27:14;2.70;99.90
14741;DHT22;7462;53.530;9.414;2022-12-07T03:29:46;2.70;99.90
14741;DHT22;7462;53.530;9.414;2022-12-07T03:32:25;2.80;99.90
14741;DHT22;7462;53.530;9.414;2022-12-07T03:35:00;2.70;99.90
14741;DHT22;7462;53.530;9.414;2022-12-07T03:37:34;2.60;99.90
14741;DHT22;7462;53.530;9.414;2022-12-07T03:40:08;2.60;99.90
14741;DHT22;7462;53.530;9.414;2022-12-07T03:42:39;2.60;99.90
14741;DHT22;7462;53.530;9.414;2022-12-07T03:45:09;2.60;99.90
14741;DHT22;7462;53.530;9.414;2022-12-07T03:47:45;2.60;99.90
14741;DHT22;7462;53.530;9.414;2022-12-07T03:50:21;2.50;99.90
14741;DHT22;7462;53.530;9.414;2022-12-07T03:52:55;2.60;99.90
14741;DHT22;7462;53.530;9.414;2022-12-07T03:55:26;2.50;99.90
14741;DHT22;7462;53.530;9.414;2022-12-07T03:57:58;2.50;99.90
14741;DHT22;7462;53.530;9.414;2022-12-07T04:00:27;2.60;99.90
14741;DHT22;7462;53.530;9.414;2022-12-07T04:02:57;2.80;99.90
14741;DHT22;7462;53.530;9.414;2022-12-07T04:05:26;2.90;99.90
14741;DHT22;7462;53.530;9.414;2022-12-07T04:07:54;3.00;99.90
14741;DHT22;7462;53.530;9.414;2022-12-07T04:10:22;3.00;99.90
14741;DHT22;7462;53.530;9.414;2022-12-07T04:12:50;3.00;99.90
14741;DHT22;7462;53.530;9.414;2022-12-07T04:15:18;2.90;99.90
14741;DHT22;7462;53.530;9.414;2022-12-07T04:17:46;2.90;99.90
14741;DHT22;7462;53.530;9.414;2022-12-07T04:20:16;3.10;99.90
14741;DHT22;7462;53.530;9.414;2022-12-07T04:22:44;3.00;99.90
14741;DHT22;7462;53.530;9.414;2022-12-07T04:25:12;2.90;99.90
14741;DHT22;7462;53.530;9.414;2022-12-07T04:27:40;2.90;99.90
14741;DHT22;7462;53.530;9.414;2022-12-07T04:30:08;2.80;99.90
14741;DHT22;7462;53.530;9.414;2022-12-07T04:32:37;2.80;99.90
14741;DHT22;7462;53.530;9.414;2022-12-07T04:35:05;2.80;99.90
14741;DHT22;7462;53.530;9.414;2022-12-07T04:37:35;2.70;99.90
14741;DHT22;7462;53.530;9.414;2022-12-07T04:40:07;2.70;99.90
14741;DHT22;7462;53.530;9.414;2022-12-07T04:42:37;2.80;99.90
14741;DHT22;7462;53.530;9.414;2022-12-07T04:45:06;2.70;99.90
14741;DHT22;7462;53.530;9.414;2022-12-07T04:47:35;2.60;99.90
14741;DHT22;7462;53.530;9.414;2022-12-07T04:50:03;2.60;99.90
14741;DHT22;7462;53.530;9.414;2022-12-07T04:52:32;2.60;99.90
14741;DHT22;7462;53.530;9.414;2022-12-07T04:55:01;2.70;99.90
14741;DHT22;7462;53.530;9.414;2022-12-07T04:57:29;2.80;99.90
14741;DHT22;7462;53.530;9.414;2022-12-07T04:59:57;2.80;99.90
14741;DHT22;7462;53.530;9.414;2022-12-07T05:02:26;2.90;99.90
14741;DHT22;7462;53.530;9.414;2022-12-07T05:04:54;2.70;99.90
14741;DHT22;7462;53.530;9.414;2022-12-07T05:07:22;2.60;99.90
14741;DHT22;7462;53.530;9.414;2022-12-07T05:09:50;2.50;99.90
14741;DHT22;7462;53.530;9.414;2022-12-07T05:12:20;2.70;99.90
14741;DHT22;7462;53.530;9.414;2022-12-07T05:14:48;2.60;99.90
14741;DHT22;7462;53.530;9.414;2022-12-07T05:17:16;2.60;99.90
14741;DHT22;7462;53.530;9.414;2022-12-07T05:19:44;2.50;99.90
14741;DHT22;7462;53.530;9.414;2022-12-07T05:22:12;2.50;99.90
14741;DHT22;7462;53.530;9.414;2022-12-07T05:24:40;2.50;99.90
14741;DHT22;7462;53.530;9.414;2022-12-07T05:27:08;2.50;99.90
14741;DHT22;7462;53.530;9.414;2022-12-07T05:29:39;2.50;99.90
14741;DHT22;7462;53.530;9.414;2022-12-07T05:32:07;2.50;99.90
14741;DHT22;7462;53.530;9.414;2022-12-07T05:34:36;2.50;99.90
14741;DHT22;7462;53.530;9.414;2022-12-07T05:37:04;2.60;99.90
14741;DHT22;7462;53.530;9.414;2022-12-07T05:39:32;2.60;99.90
14741;DHT22;7462;53.530;9.414;2022-12-07T05:42:00;2.70;99.90
14741;DHT22;7462;53.530;9.414;2022-12-07T05:44:43;2.60;99.90
14741;DHT22;7462;53.530;9.414;2022-12-07T05:47:13;2.60;99.90
14741;DHT22;7462;53.530;9.414;2022-12-07T05:49:41;2.60;99.90
14741;DHT22;7462;53.530;9.414;2022-12-07T05:52:09;2.50;99.90
14741;DHT22;7462;53.530;9.414;2022-12-07T05:54:37;2.50;99.90
14741;DHT22;7462;53.530;9.414;2022-12-07T05:57:05;2.50;99.90
14741;DHT22;7462;53.530;9.414;2022-12-07T05:59:33;2.50;99.90
14741;DHT22;7462;53.530;9.414;2022-12-07T06:02:04;2.50;99.90
14741;DHT22;7462;53.530;9.414;2022-12-07T06:04:34;2.40;99.90
14741;DHT22;7462;53.530;9.414;2022-12-07T06:07:04;2.40;99.90
14741;DHT22;7462;53.530;9.414;2022-12-07T06:09:32;2.40;99.90
14741;DHT22;7462;53.530;9.414;2022-12-07T06:12:01;2.40;99.90
14741;DHT22;7462;53.530;9.414;2022-12-07T06:14:47;2.40;99.90
14741;DHT22;7462;53.530;9.414;2022-12-07T06:17:17;2.50;99.90
14741;DHT22;7462;53.530;9.414;2022-12-07T06:19:45;2.40;99.90
14741;DHT22;7462;53.530;9.414;2022-12-07T06:22:13;2.40;99.90
14741;DHT22;7462;53.530;9.414;2022-12-07T06:24:43;2.40;99.90
14741;DHT22;7462;53.530;9.414;2022-12-07T06:27:11;2.40;99.90
14741;DHT22;7462;53.530;9.414;2022-12-07T06:29:39;2.40;99.90
14741;DHT22;7462;53.530;9.414;2022-12-07T06:32:07;2.50;99.90
14741;DHT22;7462;53.530;9.414;2022-12-07T06:34:37;2.50;99.90
14741;DHT22;7462;53.530;9.414;2022-12-07T06:37:05;2.40;99.90
14741;DHT22;7462;53.530;9.414;2022-12-07T06:39:33;2.50;99.90
14741;DHT22;7462;53.530;9.414;2022-12-07T06:42:01;2.50;99.90
14741;DHT22;7462;53.530;9.414;2022-12-07T06:44:29;2.50;99.90
14741;DHT22;7462;53.530;9.414;2022-12-07T06:46:57;2.40;99.90
14741;DHT22;7462;53.530;9.414;2022-12-07T06:49:47;2.40;99.90
14741;DHT22;7462;53.530;9.414;2022-12-07T06:52:14;2.40;99.90
14741;DHT22;7462;53.530;9.414;2022-12-07T06:54:43;2.40;99.90
14741;DHT22;7462;53.530;9.414;2022-12-07T06:57:11;2.40;99.90
14741;DHT22;7462;53.530;9.414;2022-12-07T06:59:39;2.40;99.90
14741;DHT22;7462;53.530;9.414;2022-12-07T07:02:08;2.40;99.90
14741;DHT22;7462;53.530;9.414;2022-12-07T07:04:36;2.40;99.90
14741;DHT22;7462;53.530;9.414;2022-12-07T07:07:06;2.40;99.90
14741;DHT22;7462;53.530;9.414;2022-12-07T07:09:34;2.50;99.90
14741;DHT22;7462;53.530;9.414;2022-12-07T07:12:02;2.50;99.90
14741;DHT22;7462;53.530;9.414;2022-12-07T07:14:30;2.50;99.90
14741;DHT22;7462;53.530;9.414;2022-12-07T07:16:59;2.50;99.90
14741;DHT22;7462;53.530;9.414;2022-12-07T07:19:27;2.50;99.90
14741;DHT22;7462;53.530;9.414;2022-12-07T07:21:55;2.50;99.90
14741;DHT22;7462;53.530;9.414;2022-12-07T07:24:25;2.50;99.90
14741;DHT22;7462;53.530;9.414;2022-12-07T07:26:53;2.50;99.90
14741;DHT22;7462;53.530;9.414;2022-12-07T07:29:21;2.50;99.90
14741;DHT22;7462;53.530;9.414;2022-12-07T07:31:49;2.50;99.90
14741;DHT22;7462;53.530;9.414;2022-12-07T07:34:17;2.50;99.90
14741;DHT22;7462;53.530;9.414;2022-12-07T07:36:45;2.50;99.90
14741;DHT22;7462;53.530;9.414;2022-12-07T07:39:13;2.50;99.90
14741;DHT22;7462;53.530;9.414;2022-12-07T07:41:43;2.50;99.90
14741;DHT22;7462;53.530;9.414;2022-12-07T07:44:13;2.60;99.90
14741;DHT22;7462;53.530;9.414;2022-12-07T07:46:41;2.50;99.90
14741;DHT22;7462;53.530;9.414;2022-12-07T07:49:09;2.50;99.90
14741;DHT22;7462;53.530;9.414;2022-12-07T07:51:38;2.60;99.90
14741;DHT22;7462;53.530;9.414;2022-12-07T07:54:06;2.60;99.90
14741;DHT22;7462;53.530;9.414;2022-12-07T07:56:34;2.70;99.90
14741;DHT22;7462;53.530;9.414;2022-12-07T07:59:03;2.70;99.90
14741;DHT22;7462;53.530;9.414;2022-12-07T08:01:31;2.60;99.90
14741;DHT22;7462;53.530;9.414;2022-12-07T08:03:59;2.70;99.90
14741;DHT22;7462;53.530;9.414;2022-12-07T08:06:27;2.70;99.90
14741;DHT22;7462;53.530;9.414;2022-12-07T08:08:58;2.70;99.90
14741;DHT22;7462;53.530;9.414;2022-12-07T08:11:27;2.70;99.90
14741;DHT22;7462;53.530;9.414;2022-12-07T08:13:55;2.70;99.90
14741;DHT22;7462;53.530;9.414;2022-12-07T08:16:25;2.70;99.90
14741;DHT22;7462;53.530;9.414;2022-12-07T08:18:53;2.80;99.90
14741;DHT22;7462;53.530;9.414;2022-12-07T08:21:22;2.80;99.90
14741;DHT22;7462;53.530;9.414;2022-12-07T08:23:50;2.80;99.90
14741;DHT22;7462;53.530;9.414;2022-12-07T08:26:18;2.90;99.90
14741;DHT22;7462;53.530;9.414;2022-12-07T08:28:46;2.90;99.90
14741;DHT22;7462;53.530;9.414;2022-12-07T08:31:16;2.90;99.90
14741;DHT22;7462;53.530;9.414;2022-12-07T08:33:46;2.90;99.90
14741;DHT22;7462;53.530;9.414;2022-12-07T08:36:15;2.90;99.90
14741;DHT22;7462;53.530;9.414;2022-12-07T08:38:43;2.90;99.90
14741;DHT22;7462;53.530;9.414;2022-12-07T08:41:31;3.00;99.90
14741;DHT22;7462;53.530;9.414;2022-12-07T08:44:00;3.00;99.90
14741;DHT22;7462;53.530;9.414;2022-12-07T08:46:31;3.00;99.90
14741;DHT22;7462;53.530;9.414;2022-12-07T08:49:06;3.10;99.90
14741;DHT22;7462;53.530;9.414;2022-12-07T08:51:35;3.10;99.90
14741;DHT22;7462;53.530;9.414;2022-12-07T08:54:06;3.10;99.90
14741;DHT22;7462;53.530;9.414;2022-12-07T08:56:35;3.00;99.90
14741;DHT22;7462;53.530;9.414;2022-12-07T08:59:04;3.00;99.90
14741;DHT22;7462;53.530;9.414;2022-12-07T09:01:33;3.00;99.90
14741;DHT22;7462;53.530;9.414;2022-12-07T09:04:02;3.00;99.90
14741;DHT22;7462;53.530;9.414;2022-12-07T09:06:30;3.00;99.90
14741;DHT22;7462;53.530;9.414;2022-12-07T09:09:01;3.00;99.90
14741;DHT22;7462;53.530;9.414;2022-12-07T09:11:29;3.00;99.90
14741;DHT22;7462;53.530;9.414;2022-12-07T09:13:57;3.00;99.90
14741;DHT22;7462;53.530;9.414;2022-12-07T09:16:25;3.10;99.90
14741;DHT22;7462;53.530;9.414;2022-12-07T09:18:54;3.10;99.90
14741;DHT22;7462;53.530;9.414;2022-12-07T09:21:23;3.10;99.90
14741;DHT22;7462;53.530;9.414;2022-12-07T09:23:51;3.10;99.90
14741;DHT22;7462;53.530;9.414;2022-12-07T09:26:19;3.10;99.90
14741;DHT22;7462;53.530;9.414;2022-12-07T09:28:47;3.10;99.90
14741;DHT22;7462;53.530;9.414;2022-12-07T09:31:15;3.10;99.90
14741;DHT22;7462;53.530;9.414;2022-12-07T09:33:55;3.30;99.90
14741;DHT22;7462;53.530;9.414;2022-12-07T09:36:26;3.30;99.90
14741;DHT22;7462;53.530;9.414;2022-12-07T09:38:54;3.40;99.90
14741;DHT22;7462;53.530;9.414;2022-12-07T09:41:24;3.30;99.90
14741;DHT22;7462;53.530;9.414;2022-12-07T09:43:53;3.30;99.90
14741;DHT22;7462;53.530;9.414;2022-12-07T09:46:22;3.30;99.90
14741;DHT22;7462;53.530;9.414;2022-12-07T09:48:50;3.30;99.90
14741;DHT22;7462;53.530;9.414;2022-12-07T09:51:20;3.40;99.90
14741;DHT22;7462;53.530;9.414;2022-12-07T09:53:54;3.40;99.90
14741;DHT22;7462;53.530;9.414;2022-12-07T09:56:24;3.50;99.90
14741;DHT22;7462;53.530;9.414;2022-12-07T09:58:59;3.50;99.90
14741;DHT22;7462;53.530;9.414;2022-12-07T10:01:30;3.60;99.90
14741;DHT22;7462;53.530;9.414;2022-12-07T10:04:06;3.60;99.90
14741;DHT22;7462;53.530;9.414;2022-12-07T10:06:36;3.60;99.90
14741;DHT22;7462;53.530;9.414;2022-12-07T10:09:10;3.60;99.90
14741;DHT22;7462;53.530;9.414;2022-12-07T10:11:58;3.70;99.90
14741;DHT22;7462;53.530;9.414;2022-12-07T10:14:28;3.70;99.90
14741;DHT22;7462;53.530;9.414;2022-12-07T10:17:34;3.70;99.90
14741;DHT22;7462;53.530;9.414;2022-12-07T10:20:17;3.80;99.90
14741;DHT22;7462;53.530;9.414;2022-12-07T10:22:57;3.80;99.90
14741;DHT22;7462;53.530;9.414;2022-12-07T10:25:29;3.90;99.90
14741;DHT22;7462;53.530;9.414;2022-12-07T10:28:01;3.90;99.90
14741;DHT22;7462;53.530;9.414;2022-12-07T10:30:30;3.90;99.90
14741;DHT22;7462;53.530;9.414;2022-12-07T10:32:59;3.80;99.90
14741;DHT22;7462;53.530;9.414;2022-12-07T10:35:29;3.90;99.90
14741;DHT22;7462;53.530;9.414;2022-12-07T10:38:00;3.90;99.90
14741;DHT22;7462;53.530;9.414;2022-12-07T10:40:33;3.90;99.90
14741;DHT22;7462;53.530;9.414;2022-12-07T10:43:05;3.90;99.90
14741;DHT22;7462;53.530;9.414;2022-12-07T10:45:35;3.90;99.90
14741;DHT22;7462;53.530;9.414;2022-12-07T10:48:35;3.90;99.90
14741;DHT22;7462;53.530;9.414;2022-12-07T10:51:08;3.90;99.90
14741;DHT22;7462;53.530;9.414;2022-12-07T10:53:52;3.90;99.90
14741;DHT22;7462;53.530;9.414;2022-12-07T10:56:51;3.90;99.90
14741;DHT22;7462;53.530;9.414;2022-12-07T10:59:50;3.90;99.90
14741;DHT22;7462;53.530;9.414;2022-12-07T11:02:37;4.00;99.90
14741;DHT22;7462;53.530;9.414;2022-12-07T11:05:19;4.00;99.90
14741;DHT22;7462;53.530;9.414;2022-12-07T11:08:00;4.10;99.90
14741;DHT22;7462;53.530;9.414;2022-12-07T11:10:37;4.20;99.90
14741;DHT22;7462;53.530;9.414;2022-12-07T11:13:18;4.20;99.90
14741;DHT22;7462;53.530;9.414;2022-12-07T11:16:16;4.30;99.90
14741;DHT22;7462;53.530;9.414;2022-12-07T11:18:55;4.30;99.90
14741;DHT22;7462;53.530;9.414;2022-12-07T11:21:31;4.30;99.90
14741;DHT22;7462;53.530;9.414;2022-12-07T11:24:06;4.40;99.90
14741;DHT22;7462;53.530;9.414;2022-12-07T11:27:04;4.50;99.90
14741;DHT22;7462;53.530;9.414;2022-12-07T11:29:50;4.60;99.90
14741;DHT22;7462;53.530;9.414;2022-12-07T11:32:27;4.60;99.90
14741;DHT22;7462;53.530;9.414;2022-12-07T11:35:07;4.60;99.90
14741;DHT22;7462;53.530;9.414;2022-12-07T11:37:37;4.60;99.90
14741;DHT22;7462;53.530;9.414;2022-12-07T11:40:17;4.60;99.90
14741;DHT22;7462;53.530;9.414;2022-12-07T11:42:51;4.70;99.90
14741;DHT22;7462;53.530;9.414;2022-12-07T11:45:24;4.70;99.90
14741;DHT22;7462;53.530;9.414;2022-12-07T11:47:55;4.70;99.90
14741;DHT22;7462;53.530;9.414;2022-12-07T11:50:32;4.70;99.90
14741;DHT22;7462;53.530;9.414;2022-12-07T11:53:03;4.60;99.90
14741;DHT22;7462;53.530;9.414;2022-12-07T11:55:42;4.60;99.90
14741;DHT22;7462;53.530;9.414;2022-12-07T11:58:22;4.60;99.90
14741;DHT22;7462;53.530;9.414;2022-12-07T12:00:55;4.60;99.90
14741;DHT22;7462;53.530;9.414;2022-12-07T12:03:34;4.60;99.90
14741;DHT22;7462;53.530;9.414;2022-12-07T12:06:03;4.70;99.90
14741;DHT22;7462;53.530;9.414;2022-12-07T12:08:36;4.70;99.90
14741;DHT22;7462;53.530;9.414;2022-12-07T12:11:39;4.70;99.90
14741;DHT22;7462;53.530;9.414;2022-12-07T12:14:37;4.60;99.90
14741;DHT22;7462;53.530;9.414;2022-12-07T12:17:35;4.60;99.90
14741;DHT22;7462;53.530;9.414;2022-12-07T12:20:17;4.60;99.90
14741;DHT22;7462;53.530;9.414;2022-12-07T12:22:50;4.60;99.90
14741;DHT22;7462;53.530;9.414;2022-12-07T12:25:22;4.60;99.90
14741;DHT22;7462;53.530;9.414;2022-12-07T12:27:53;4.70;99.90
14741;DHT22;7462;53.530;9.414;2022-12-07T12:30:31;4.70;99.90
14741;DHT22;7462;53.530;9.414;2022-12-07T12:33:06;4.70;99.90
14741;DHT22;7462;53.530;9.414;2022-12-07T12:35:40;4.70;99.90
14741;DHT22;7462;53.530;9.414;2022-12-07T12:38:27;4.70;99.90
14741;DHT22;7462;53.530;9.414;2022-12-07T12:40:57;4.70;99.90
14741;DHT22;7462;53.530;9.414;2022-12-07T12:43:46;4.70;99.90
14741;DHT22;7462;53.530;9.414;2022-12-07T12:53:02;5.00;99.90
14741;DHT22;7462;53.530;9.414;2022-12-07T12:58:36;5.10;99.90
14741;DHT22;7462;53.530;9.414;2022-12-07T13:07:12;5.20;99.90
14741;DHT22;7462;53.530;9.414;2022-12-07T13:09:47;5.20;99.90
14741;DHT22;7462;53.530;9.414;2022-12-07T13:12:16;5.00;99.90
14741;DHT22;7462;53.530;9.414;2022-12-07T13:14:56;4.90;99.90
14741;DHT22;7462;53.530;9.414;2022-12-07T13:18:00;4.90;99.90
14741;DHT22;7462;53.530;9.414;2022-12-07T13:20:48;4.80;99.90
14741;DHT22;7462;53.530;9.414;2022-12-07T13:23:20;4.90;99.90
14741;DHT22;7462;53.530;9.414;2022-12-07T13:25:56;4.90;99.90
14741;DHT22;7462;53.530;9.414;2022-12-07T13:28:33;4.90;99.90
14741;DHT22;7462;53.530;9.414;2022-12-07T13:31:30;5.00;99.90
14741;DHT22;7462;53.530;9.414;2022-12-07T13:34:00;5.00;99.90
14741;DHT22;7462;53.530;9.414;2022-12-07T13:36:30;5.00;99.90
14741;DHT22;7462;53.530;9.414;2022-12-07T13:39:16;4.90;99.90
14741;DHT22;7462;53.530;9.414;2022-12-07T13:41:50;4.90;99.90
14741;DHT22;7462;53.530;9.414;2022-12-07T13:44:26;4.80;99.90
14741;DHT22;7462;53.530;9.414;2022-12-07T13:47:00;4.70;99.90
14741;DHT22;7462;53.530;9.414;2022-12-07T13:49:32;4.60;99.90
14741;DHT22;7462;53.530;9.414;2022-12-07T13:52:16;4.60;99.90
14741;DHT22;7462;53.530;9.414;2022-12-07T13:54:46;4.70;99.90
14741;DHT22;7462;53.530;9.414;2022-12-07T13:57:17;4.60;99.90
14741;DHT22;7462;53.530;9.414;2022-12-07T13:59:46;4.70;99.90
14741;DHT22;7462;53.530;9.414;2022-12-07T14:02:22;4.70;99.90
14741;DHT22;7462;53.530;9.414;2022-12-07T14:05:08;4.70;99.90
14741;DHT22;7462;53.530;9.414;2022-12-07T14:07:49;4.70;99.90
14741;DHT22;7462;53.530;9.414;2022-12-07T14:10:25;4.60;99.90
14741;DHT22;7462;53.530;9.414;2022-12-07T14:12:56;4.50;99.90
14741;DHT22;7462;53.530;9.414;2022-12-07T14:15:28;4.50;99.90
14741;DHT22;7462;53.530;9.414;2022-12-07T14:17:58;4.50;99.90
14741;DHT22;7462;53.530;9.414;2022-12-07T14:20:32;4.50;99.90
14741;DHT22;7462;53.530;9.414;2022-12-07T14:23:01;4.50;99.90
14741;DHT22;7462;53.530;9.414;2022-12-07T14:25:45;4.50;99.90
14741;DHT22;7462;53.530;9.414;2022-12-07T14:28:29;4.60;99.90
14741;DHT22;7462;53.530;9.414;2022-12-07T14:30:58;4.50;99.90
14741;DHT22;7462;53.530;9.414;2022-12-07T14:33:26;4.50;99.90
14741;DHT22;7462;53.530;9.414;2022-12-07T14:35:55;4.40;99.90
14741;DHT22;7462;53.530;9.414;2022-12-07T14:38:25;4.40;99.90
14741;DHT22;7462;53.530;9.414;2022-12-07T14:40:54;4.50;99.90
14741;DHT22;7462;53.530;9.414;2022-12-07T14:43:46;4.50;99.90
14741;DHT22;7462;53.530;9.414;2022-12-07T14:46:34;4.60;99.90
14741;DHT22;7462;53.530;9.414;2022-12-07T14:49:02;4.70;99.90
14741;DHT22;7462;53.530;9.414;2022-12-07T14:51:50;4.60;99.90
14741;DHT22;7462;53.530;9.414;2022-12-07T14:54:38;4.60;99.90
14741;DHT22;7462;53.530;9.414;2022-12-07T14:57:08;4.60;99.90
14741;DHT22;7462;53.530;9.414;2022-12-07T14:59:37;4.50;99.90
14741;DHT22;7462;53.530;9.414;2022-12-07T15:02:12;4.40;99.90
14741;DHT22;7462;53.530;9.414;2022-12-07T15:04:41;4.40;99.90
14741;DHT22;7462;53.530;9.414;2022-12-07T15:07:14;4.50;99.90
14741;DHT22;7462;53.530;9.414;2022-12-07T15:09:44;4.50;99.90
14741;DHT22;7462;53.530;9.414;2022-12-07T15:12:12;4.40;99.90
14741;DHT22;7462;53.530;9.414;2022-12-07T15:14:41;4.50;99.90
14741;DHT22;7462;53.530;9.414;2022-12-07T15:17:10;4.50;99.90
14741;DHT22;7462;53.530;9.414;2022-12-07T15:19:53;4.50;99.90
14741;DHT22;7462;53.530;9.414;2022-12-07T15:22:21;4.40;99.90
14741;DHT22;7462;53.530;9.414;2022-12-07T15:24:49;4.40;99.90
14741;DHT22;7462;53.530;9.414;2022-12-07T15:27:17;4.30;99.90
14741;DHT22;7462;53.530;9.414;2022-12-07T15:29:47;4.30;99.90
14741;DHT22;7462;53.530;9.414;2022-12-07T15:32:15;4.30;99.90
14741;DHT22;7462;53.530;9.414;2022-12-07T15:34:43;4.30;99.90
14741;DHT22;7462;53.530;9.414;2022-12-07T15:37:11;4.40;99.90
14741;DHT22;7462;53.530;9.414;2022-12-07T15:39:39;4.20;99.90
14741;DHT22;7462;53.530;9.414;2022-12-07T15:42:07;4.20;99.90
14741;DHT22;7462;53.530;9.414;2022-12-07T15:44:35;4.30;99.90
14741;DHT22;7462;53.530;9.414;2022-12-07T15:47:22;4.30;99.90
14741;DHT22;7462;53.530;9.414;2022-12-07T15:49:50;4.30;99.90
14741;DHT22;7462;53.530;9.414;2022-12-07T15:52:18;4.20;99.90
14741;DHT22;7462;53.530;9.414;2022-12-07T15:54:46;4.10;99.90
14741;DHT22;7462;53.530;9.414;2022-12-07T15:57:15;4.10;99.90
14741;DHT22;7462;53.530;9.414;2022-12-07T15:59:50;4.20;99.90
14741;DHT22;7462;53.530;9.414;2022-12-07T16:02:18;4.10;99.90
14741;DHT22;7462;53.530;9.414;2022-12-07T16:04:48;4.10;99.90
14741;DHT22;7462;53.530;9.414;2022-12-07T16:07:16;4.00;99.90
14741;DHT22;7462;53.530;9.414;2022-12-07T16:09:46;4.00;99.90
14741;DHT22;7462;53.530;9.414;2022-12-07T16:12:14;4.00;99.90
14741;DHT22;7462;53.530;9.414;2022-12-07T16:14:43;4.00;99.90
14741;DHT22;7462;53.530;9.414;2022-12-07T16:17:11;4.00;99.90
14741;DHT22;7462;53.530;9.414;2022-12-07T16:19:40;4.00;99.90
14741;DHT22;7462;53.530;9.414;2022-12-07T16:22:09;4.10;99.90
14741;DHT22;7462;53.530;9.414;2022-12-07T16:24:37;4.10;99.90
14741;DHT22;7462;53.530;9.414;2022-12-07T16:27:06;4.20;99.90
14741;DHT22;7462;53.530;9.414;2022-12-07T16:29:34;4.10;99.90
14741;DHT22;7462;53.530;9.414;2022-12-07T16:32:02;4.10;99.90
14741;DHT22;7462;53.530;9.414;2022-12-07T16:34:30;4.10;99.90
14741;DHT22;7462;53.530;9.414;2022-12-07T16:36:58;4.10;99.90
14741;DHT22;7462;53.530;9.414;2022-12-07T16:39:32;4.10;99.90
14741;DHT22;7462;53.530;9.414;2022-12-07T16:42:01;3.90;99.90
14741;DHT22;7462;53.530;9.414;2022-12-07T16:44:29;4.00;99.90
14741;DHT22;7462;53.530;9.414;2022-12-07T16:46:58;4.00;99.90
14741;DHT22;7462;53.530;9.414;2022-12-07T16:49:27;3.90;99.90
14741;DHT22;7462;53.530;9.414;2022-12-07T16:51:55;4.10;99.90
14741;DHT22;7462;53.530;9.414;2022-12-07T16:54:45;4.00;99.90
14741;DHT22;7462;53.530;9.414;2022-12-07T16:57:13;3.90;99.90